createdAt,value
2019-03-13T00:01:47.266Z,54.47
2019-03-13T00:04:17.955Z,54.90
2019-03-13T00:06:50.216Z,55.81
2019-03-13T00:09:22.431Z,56.72
2019-03-13T00:11:57.638Z,57.31
2019-03-13T00:14:28.558Z,59.22
2019-03-13T00:17:06.177Z,60.68
2019-03-13T00:19:38.665Z,61.92
2019-03-13T00:22:12.123Z,63.69
2019-03-13T00:24:45.036Z,64.42
2019-03-13T00:27:15.895Z,64.68
2019-03-13T00:29:51.268Z,66.13
2019-03-13T00:32:23.355Z,67.37
2019-03-13T00:34:55.583Z,69.28
2019-03-13T00:37:27.697Z,69.62
2019-03-13T00:40:00.347Z,70.29
2019-03-13T00:42:30.992Z,70.16
2019-03-13T00:45:04.973Z,70.02
2019-03-13T00:47:35.625Z,68.02
2019-03-13T00:50:23.262Z,67.56
2019-03-13T00:52:56.449Z,67.62
2019-03-13T00:55:27.010Z,67.89
2019-03-13T00:57:58.719Z,65.79
2019-03-13T01:01:03.178Z,65.55
2019-03-13T01:03:58.165Z,64.88
2019-03-13T01:06:32.421Z,64.26
2019-03-13T01:09:07.422Z,65.10
2019-03-13T01:11:38.014Z,65.25
2019-03-13T01:14:11.617Z,65.47
2019-03-13T01:16:42.127Z,65.76
2019-03-13T01:19:18.299Z,65.92
2019-03-13T01:21:48.603Z,66.19
2019-03-13T01:24:27.318Z,66.42
2019-03-13T01:26:57.729Z,66.02
2019-03-13T01:29:29.095Z,66.53
2019-03-13T01:32:26.858Z,66.78
2019-03-13T01:35:14.293Z,67.04
2019-03-13T01:37:47.448Z,67.58
2019-03-13T01:40:21.419Z,67.27
2019-03-13T01:42:55.349Z,67.70
2019-03-13T01:45:27.393Z,68.01
2019-03-13T01:47:59.669Z,67.93
2019-03-13T01:50:31.728Z,67.97
2019-03-13T01:53:04.502Z,68.64
2019-03-13T01:55:35.285Z,68.55
2019-03-13T01:58:05.871Z,69.16
2019-03-13T02:00:36.418Z,69.09
2019-03-13T02:03:08.683Z,68.78
2019-03-13T02:05:40.639Z,69.93
2019-03-13T02:08:13.818Z,69.19
2019-03-13T02:10:46.836Z,69.72
2019-03-13T02:13:22.550Z,69.76
2019-03-13T02:15:53.118Z,70.08
2019-03-13T02:18:25.388Z,69.85
2019-03-13T02:20:55.860Z,69.71
2019-03-13T02:23:26.789Z,70.29
2019-03-13T02:26:00.574Z,69.41
2019-03-13T02:28:32.680Z,69.42
2019-03-13T02:31:06.202Z,69.34
2019-03-13T02:33:36.976Z,68.83
2019-03-13T02:36:09.434Z,68.73
2019-03-13T02:38:40.594Z,68.89
2019-03-13T02:41:10.955Z,69.16
2019-03-13T02:43:41.570Z,68.97
2019-03-13T02:46:12.275Z,68.39
2019-03-13T02:48:46.058Z,68.22
2019-03-13T02:51:16.454Z,67.95
2019-03-13T02:53:48.505Z,68.28
2019-03-13T02:56:20.821Z,68.31
2019-03-13T02:58:55.909Z,69.39
2019-03-13T03:01:41.966Z,70.38
2019-03-13T03:04:16.506Z,73.44
2019-03-13T03:06:52.420Z,75.37
2019-03-13T03:09:28.805Z,75.97
2019-03-13T03:11:59.230Z,77.20
2019-03-13T03:14:32.125Z,78.24
2019-03-13T03:17:13.356Z,79.25
2019-03-13T03:19:43.932Z,79.50
2019-03-13T03:22:14.487Z,80.14
2019-03-13T03:24:46.517Z,80.97
2019-03-13T03:27:17.026Z,81.48
2019-03-13T03:29:47.323Z,81.81
2019-03-13T03:32:18.063Z,82.43
2019-03-13T03:34:59.091Z,82.62
2019-03-13T03:37:25.143Z,82.69
2019-03-13T03:39:55.565Z,82.48
2019-03-13T03:42:26.399Z,82.24
2019-03-13T03:44:56.920Z,82.07
2019-03-13T03:47:30.173Z,82.30
2019-03-13T03:50:03.434Z,82.37
2019-03-13T03:52:33.723Z,82.41
2019-03-13T03:55:08.197Z,82.02
2019-03-13T03:57:38.876Z,82.47
2019-03-13T04:00:18.046Z,82.81
2019-03-13T04:02:51.370Z,83.12
2019-03-13T04:05:22.196Z,83.03
2019-03-13T04:07:53.788Z,82.79
2019-03-13T04:10:29.218Z,82.87
2019-03-13T04:13:01.362Z,83.50
2019-03-13T04:15:33.403Z,83.46
2019-03-13T04:18:05.740Z,83.77
2019-03-13T04:20:40.001Z,83.70
2019-03-13T04:23:10.698Z,82.70
2019-03-13T04:25:41.257Z,82.67
2019-03-13T04:28:11.599Z,82.13
2019-03-13T04:30:43.672Z,82.19
2019-03-13T04:33:16.616Z,82.45
2019-03-13T04:35:47.547Z,82.56
2019-03-13T04:38:17.841Z,82.82
2019-03-13T04:40:48.399Z,83.20
2019-03-13T04:43:19.896Z,83.97
2019-03-13T04:45:52.125Z,83.82
2019-03-13T04:48:27.988Z,84.12
2019-03-13T04:50:58.688Z,84.09
2019-03-13T04:53:32.649Z,83.63
2019-03-13T04:56:07.407Z,83.01
2019-03-13T04:58:38.029Z,82.64
2019-03-13T05:01:10.366Z,82.29
2019-03-13T05:03:40.512Z,83.05
2019-03-13T05:06:23.196Z,83.39
2019-03-13T05:09:06.790Z,83.99
2019-03-13T05:11:40.041Z,84.32
2019-03-13T05:14:10.306Z,82.73
2019-03-13T05:16:48.163Z,83.72
2019-03-13T05:19:18.728Z,84.76
2019-03-13T05:21:49.471Z,85.00
2019-03-13T05:24:19.979Z,85.19
2019-03-13T05:26:52.117Z,85.15
2019-03-13T05:29:24.346Z,85.53
2019-03-13T05:31:59.260Z,84.81
2019-03-13T05:34:29.904Z,85.52
2019-03-13T05:37:00.336Z,85.68
2019-03-13T05:39:35.177Z,86.60
2019-03-13T05:42:06.900Z,85.90
2019-03-13T05:44:37.252Z,86.28
2019-03-13T05:47:07.636Z,86.39
2019-03-13T05:49:37.870Z,86.65
2019-03-13T05:52:11.703Z,84.78
2019-03-13T05:54:55.485Z,84.29
2019-03-13T05:57:34.842Z,84.19
2019-03-13T06:00:06.101Z,83.58
2019-03-13T06:02:40.789Z,83.14
2019-03-13T06:05:12.856Z,84.15
2019-03-13T06:07:47.064Z,82.37
2019-03-13T06:10:19.912Z,81.56
2019-03-13T06:12:53.326Z,81.47
2019-03-13T06:15:23.870Z,81.79
2019-03-13T06:17:54.363Z,82.75
2019-03-13T06:20:24.894Z,83.44
2019-03-13T06:22:57.269Z,83.31
2019-03-13T06:25:28.121Z,83.36
2019-03-13T06:27:58.480Z,83.16
2019-03-13T06:30:39.718Z,81.56
2019-03-13T06:33:15.222Z,80.94
2019-03-13T06:35:50.526Z,79.67
2019-03-13T06:38:22.294Z,78.68
2019-03-13T06:40:52.850Z,78.77
2019-03-13T06:43:24.790Z,77.85
2019-03-13T06:45:58.052Z,77.05
2019-03-13T06:48:28.428Z,75.49
2019-03-13T06:50:58.825Z,75.49
2019-03-13T06:53:34.252Z,75.11
2019-03-13T06:56:04.769Z,75.94
2019-03-13T06:58:41.450Z,75.71
2019-03-13T07:01:33.173Z,75.76
2019-03-13T07:04:23.667Z,76.30
2019-03-13T07:07:16.425Z,75.17
2019-03-13T07:10:08.996Z,74.28
2019-03-13T07:13:08.480Z,71.06
2019-03-13T07:15:52.490Z,70.80
2019-03-13T07:18:43.342Z,67.92
2019-03-13T07:21:27.880Z,68.67
2019-03-13T07:24:16.018Z,67.62
2019-03-13T07:27:05.605Z,67.52
2019-03-13T07:29:42.621Z,65.95
2019-03-13T07:32:36.941Z,68.10
2019-03-13T07:35:25.022Z,66.09
2019-03-13T07:38:26.597Z,64.81
2019-03-13T07:41:15.931Z,64.61
2019-03-13T07:44:05.393Z,63.34
2019-03-13T07:46:44.637Z,62.65
2019-03-13T07:49:21.573Z,59.05
2019-03-13T07:52:10.765Z,59.50
2019-03-13T07:55:01.937Z,60.90
2019-03-13T07:57:57.047Z,60.71
2019-03-13T08:00:48.180Z,59.42
2019-03-13T08:03:52.712Z,59.75
2019-03-13T08:06:42.086Z,58.52
2019-03-13T08:09:30.260Z,59.24
2019-03-13T08:12:23.165Z,58.38
2019-03-13T08:15:05.472Z,58.19
2019-03-13T08:17:57.071Z,59.12
2019-03-13T08:20:45.810Z,58.70
2019-03-13T08:23:45.338Z,57.66
2019-03-13T08:26:32.144Z,55.80
2019-03-13T08:29:37.224Z,53.69
2019-03-13T08:32:27.215Z,51.59
2019-03-13T08:35:24.116Z,53.64
2019-03-13T08:38:16.835Z,54.31
2019-03-13T08:41:00.568Z,56.08
2019-03-13T08:43:40.249Z,55.63
2019-03-13T08:46:37.562Z,56.20
2019-03-13T08:49:15.749Z,56.25
2019-03-13T08:52:04.361Z,56.20
2019-03-13T08:55:03.639Z,55.64
2019-03-13T08:57:48.674Z,57.21
2019-03-13T09:00:56.314Z,58.77
2019-03-13T09:03:31.994Z,57.94
2019-03-13T09:06:21.682Z,58.75
2019-03-13T09:09:24.806Z,58.13
2019-03-13T09:12:05.426Z,57.76
2019-03-13T09:14:58.422Z,55.38
2019-03-13T09:17:45.436Z,53.99
2019-03-13T09:20:38.330Z,52.80
2019-03-13T09:23:22.100Z,52.21
2019-03-13T09:26:14.351Z,52.03
2019-03-13T09:29:08.201Z,53.50
2019-03-13T09:31:56.617Z,54.44
2019-03-13T09:34:55.344Z,52.50
2019-03-13T09:38:03.703Z,53.27
2019-03-13T09:41:03.996Z,52.65
2019-03-13T09:44:00.064Z,52.86
2019-03-13T09:46:53.069Z,46.50
2019-03-13T09:49:50.457Z,42.62
2019-03-13T09:52:33.472Z,39.47
2019-03-13T09:55:17.724Z,36.43
2019-03-13T09:58:02.194Z,36.86
2019-03-13T10:00:44.457Z,40.43
2019-03-13T10:03:26.155Z,38.60
2019-03-13T10:06:18.586Z,34.29
2019-03-13T10:09:10.482Z,32.44
2019-03-13T10:11:51.386Z,31.14
2019-03-13T10:14:41.588Z,30.07
2019-03-13T10:17:22.919Z,29.92
2019-03-13T10:20:14.412Z,29.43
2019-03-13T10:23:10.231Z,30.84
2019-03-13T10:25:56.200Z,31.17
2019-03-13T10:28:47.930Z,33.48
2019-03-13T10:31:29.121Z,33.54
2019-03-13T10:34:35.529Z,30.59
2019-03-13T10:37:37.970Z,30.13
2019-03-13T10:40:43.777Z,31.94
2019-03-13T10:43:27.101Z,31.80
2019-03-13T10:46:19.610Z,31.84
2019-03-13T10:49:21.373Z,31.92
2019-03-13T10:52:14.448Z,35.39
2019-03-13T10:55:16.655Z,36.98
2019-03-13T10:58:10.239Z,36.70
2019-03-13T11:01:13.771Z,33.95
2019-03-13T11:04:05.576Z,37.04
2019-03-13T11:07:07.423Z,36.94
2019-03-13T11:09:50.933Z,37.86
2019-03-13T11:12:26.275Z,38.15
2019-03-13T11:15:17.130Z,33.21
2019-03-13T11:17:53.726Z,32.07
2019-03-13T11:20:59.084Z,35.43
2019-03-13T11:23:37.448Z,36.30
2019-03-13T11:26:35.596Z,36.11
2019-03-13T11:29:21.525Z,37.99
2019-03-13T11:32:08.366Z,39.71
2019-03-13T11:35:02.136Z,40.93
2019-03-13T11:37:51.717Z,43.37
2019-03-13T11:40:41.053Z,43.56
2019-03-13T11:43:42.463Z,45.34
2019-03-13T11:46:32.147Z,46.30
2019-03-13T11:49:21.929Z,46.28
2019-03-13T11:52:23.355Z,47.32
2019-03-13T11:55:11.514Z,47.60
2019-03-13T11:57:56.396Z,47.62
2019-03-13T12:00:51.707Z,48.63
2019-03-13T12:03:47.003Z,48.63
2019-03-13T12:06:36.062Z,48.21
2019-03-13T12:09:23.573Z,48.92
2019-03-13T12:12:25.156Z,49.33
2019-03-13T12:15:06.851Z,49.05
2019-03-13T12:17:54.635Z,48.72
2019-03-13T12:21:05.205Z,48.21
2019-03-13T12:24:00.792Z,47.95
2019-03-13T12:26:53.094Z,47.80
2019-03-13T12:29:43.139Z,47.99
2019-03-13T12:32:30.532Z,46.91
2019-03-13T12:35:22.293Z,48.15
2019-03-13T12:38:05.164Z,51.44
2019-03-13T12:40:58.734Z,48.15
2019-03-13T12:43:47.475Z,42.42
2019-03-13T12:46:41.116Z,38.57
2019-03-13T12:49:36.637Z,38.45
2019-03-13T12:52:33.558Z,40.21
2019-03-13T12:55:22.756Z,41.40
2019-03-13T12:58:01.192Z,42.81
2019-03-13T13:00:59.321Z,42.22
2019-03-13T13:03:55.959Z,42.09
2019-03-13T13:06:44.875Z,41.59
2019-03-13T13:09:36.113Z,42.66
2019-03-13T13:12:23.002Z,44.54
2019-03-13T13:15:06.742Z,45.53
2019-03-13T13:18:09.091Z,46.25
2019-03-13T13:20:39.825Z,47.28
2019-03-13T13:23:13.758Z,48.52
2019-03-13T13:25:44.571Z,49.11
2019-03-13T13:28:15.234Z,50.00
2019-03-13T13:30:46.248Z,52.77
2019-03-13T13:33:18.211Z,57.18
2019-03-13T13:35:50.532Z,59.12
2019-03-13T13:38:21.592Z,60.42
2019-03-13T13:40:54.465Z,57.60
2019-03-13T13:43:25.704Z,54.76
2019-03-13T13:46:33.919Z,48.80
2019-03-13T13:49:05.665Z,48.33
2019-03-13T13:51:37.301Z,49.91
2019-03-13T13:54:09.375Z,47.59
2019-03-13T13:56:39.948Z,46.91
2019-03-13T13:59:10.547Z,42.49
2019-03-13T14:01:41.887Z,37.85
2019-03-13T14:04:19.502Z,37.64
2019-03-13T14:06:50.434Z,37.40
2019-03-13T14:09:22.751Z,40.80
2019-03-13T14:11:53.901Z,41.12
2019-03-13T14:14:27.806Z,42.82
2019-03-13T14:16:58.406Z,44.41
2019-03-13T14:19:32.266Z,43.36
2019-03-13T14:22:04.259Z,43.11
2019-03-13T14:24:37.499Z,44.03
2019-03-13T14:27:14.385Z,45.78
2019-03-13T14:29:41.586Z,47.35
2019-03-13T14:32:16.571Z,49.12
2019-03-13T14:34:48.703Z,49.17
2019-03-13T14:37:19.106Z,49.85
2019-03-13T14:39:49.472Z,49.20
2019-03-13T14:42:20.168Z,49.38
2019-03-13T14:44:50.650Z,49.65
2019-03-13T14:47:21.066Z,49.47
2019-03-13T14:49:57.715Z,49.56
2019-03-13T14:52:28.344Z,48.70
2019-03-13T14:55:02.894Z,49.74
2019-03-13T14:57:37.360Z,50.51
2019-03-13T15:00:13.470Z,50.42
2019-03-13T15:02:43.849Z,51.06
2019-03-13T15:05:14.593Z,51.28
2019-03-13T15:07:49.343Z,51.02
2019-03-13T15:10:20.672Z,51.22
2019-03-13T15:12:54.200Z,50.87
2019-03-13T15:15:24.532Z,52.77
2019-03-13T15:17:55.203Z,53.08
2019-03-13T15:20:25.578Z,52.96
2019-03-13T15:22:57.745Z,52.77
2019-03-13T15:25:28.583Z,52.66
2019-03-13T15:27:59.319Z,54.22
2019-03-13T15:30:36.119Z,51.89
2019-03-13T15:33:08.091Z,52.93
2019-03-13T15:35:42.117Z,53.28
2019-03-13T15:38:14.413Z,53.90
2019-03-13T15:40:46.714Z,54.12
2019-03-13T15:43:17.462Z,54.09
2019-03-13T15:45:51.315Z,53.73
2019-03-13T15:48:23.226Z,54.08
2019-03-13T15:50:53.541Z,54.01
2019-03-13T15:53:24.241Z,54.74
2019-03-13T15:55:57.807Z,54.57
2019-03-13T15:58:28.462Z,53.66
2019-03-13T16:00:59.130Z,53.13
2019-03-13T16:03:29.880Z,53.35
2019-03-13T16:06:08.546Z,53.63
2019-03-13T16:08:40.638Z,53.57
2019-03-13T16:11:11.463Z,53.53
2019-03-13T16:13:47.132Z,53.10
2019-03-13T16:16:20.563Z,53.58
2019-03-13T16:18:52.802Z,52.92
2019-03-13T16:21:23.139Z,53.26
2019-03-13T16:23:53.859Z,52.88
2019-03-13T16:26:28.254Z,52.71
2019-03-13T16:29:00.421Z,53.56
2019-03-13T16:31:30.792Z,54.49
2019-03-13T16:34:01.568Z,55.24
2019-03-13T16:36:32.290Z,54.93
2019-03-13T16:39:07.105Z,55.69
2019-03-13T16:41:40.335Z,55.44
2019-03-13T16:44:10.978Z,55.89
2019-03-13T16:46:41.603Z,56.07
2019-03-13T16:49:12.405Z,56.83
2019-03-13T16:51:43.553Z,56.69
2019-03-13T16:54:16.793Z,56.95
2019-03-13T16:56:48.069Z,56.60
2019-03-13T16:59:20.257Z,56.75
2019-03-13T17:01:53.188Z,58.19
2019-03-13T17:04:23.734Z,58.38
2019-03-13T17:06:54.469Z,58.81
2019-03-13T17:09:25.274Z,59.46
2019-03-13T17:11:58.278Z,60.10
2019-03-13T17:14:29.050Z,60.52
2019-03-13T17:16:59.634Z,61.19
2019-03-13T17:19:32.564Z,61.02
2019-03-13T17:22:09.233Z,61.07
2019-03-13T17:24:42.676Z,61.13
2019-03-13T17:27:18.519Z,60.47
2019-03-13T17:29:51.971Z,60.85
2019-03-13T17:32:22.504Z,60.56
2019-03-13T17:34:53.425Z,60.04
2019-03-13T17:37:23.843Z,60.52
2019-03-13T17:39:54.721Z,60.09
2019-03-13T17:42:29.451Z,60.47
2019-03-13T17:45:00.692Z,60.63
2019-03-13T17:47:31.423Z,61.00
2019-03-13T17:50:02.256Z,60.64
2019-03-13T17:52:34.653Z,60.54
2019-03-13T17:55:05.514Z,60.75
2019-03-13T17:57:35.841Z,61.08
2019-03-13T18:00:11.880Z,61.38
2019-03-13T18:02:44.221Z,61.13
2019-03-13T18:05:15.362Z,61.47
2019-03-13T18:07:46.282Z,61.78
2019-03-13T18:10:18.214Z,61.88
2019-03-13T18:12:48.742Z,61.73
2019-03-13T18:15:21.053Z,61.78
2019-03-13T18:17:51.901Z,62.53
2019-03-13T18:20:22.338Z,61.93
2019-03-13T18:22:53.093Z,62.03
2019-03-13T18:25:23.702Z,62.54
2019-03-13T18:27:54.147Z,62.45
2019-03-13T18:30:25.272Z,62.60
2019-03-13T18:32:57.153Z,63.91
2019-03-13T18:35:29.012Z,65.47
2019-03-13T18:38:02.534Z,66.72
2019-03-13T18:40:32.952Z,67.29
2019-03-13T18:43:03.815Z,66.58
2019-03-13T18:45:34.325Z,67.13
2019-03-13T18:48:06.221Z,66.50
2019-03-13T18:50:37.138Z,66.74
2019-03-13T18:53:07.708Z,67.44
2019-03-13T18:55:38.984Z,68.43
2019-03-13T18:58:09.624Z,69.72
2019-03-13T19:00:40.294Z,69.79
2019-03-13T19:03:12.148Z,70.45
2019-03-13T19:05:44.668Z,70.47
2019-03-13T19:08:15.542Z,71.33
2019-03-13T19:10:48.283Z,72.96
2019-03-13T19:13:19.224Z,73.77
2019-03-13T19:15:53.764Z,74.25
2019-03-13T19:18:24.317Z,74.59
2019-03-13T19:20:58.417Z,75.39
2019-03-13T19:23:28.526Z,76.78
2019-03-13T19:26:03.433Z,76.93
2019-03-13T19:28:34.469Z,77.74
2019-03-13T19:31:05.088Z,79.44
2019-03-13T19:33:35.807Z,80.49
2019-03-13T19:36:07.203Z,80.73
2019-03-13T19:38:41.679Z,80.84
2019-03-13T19:41:15.285Z,81.22
2019-03-13T19:43:48.618Z,80.80
2019-03-13T19:46:20.381Z,81.33
2019-03-13T19:48:53.973Z,81.07
2019-03-13T19:51:24.336Z,81.06
2019-03-13T19:53:55.113Z,80.88
2019-03-13T19:56:27.444Z,81.36
2019-03-13T19:59:00.098Z,81.39
2019-03-13T20:01:31.017Z,81.61
2019-03-13T20:04:01.899Z,81.18
2019-03-13T20:06:42.053Z,81.38
2019-03-13T20:09:08.002Z,80.78
2019-03-13T20:11:39.183Z,80.87
2019-03-13T20:14:09.571Z,80.92
2019-03-13T20:16:40.293Z,80.60
2019-03-13T20:19:10.754Z,80.84
2019-03-13T20:21:41.230Z,80.90
2019-03-13T20:24:14.449Z,81.22
2019-03-13T20:26:44.933Z,81.48
2019-03-13T20:29:15.573Z,81.32
2019-03-13T20:31:46.140Z,81.88
2019-03-13T20:34:16.902Z,82.59
2019-03-13T20:36:49.935Z,83.08
2019-03-13T20:39:21.138Z,82.89
2019-03-13T20:41:57.978Z,84.17
2019-03-13T20:44:31.537Z,83.18
2019-03-13T20:47:05.081Z,83.48
2019-03-13T20:49:36.046Z,83.28
2019-03-13T20:52:10.617Z,83.37
2019-03-13T20:54:42.809Z,83.24
2019-03-13T20:57:13.731Z,82.80
2019-03-13T20:59:47.357Z,84.06
2019-03-13T21:02:18.359Z,84.30
2019-03-13T21:04:50.501Z,84.35
2019-03-13T21:07:21.455Z,84.38
2019-03-13T21:09:55.305Z,84.53
2019-03-13T21:12:24.298Z,84.20
2019-03-13T21:14:55.323Z,84.20
2019-03-13T21:17:26.261Z,84.21
2019-03-13T21:20:01.473Z,84.45
2019-03-13T21:22:36.457Z,84.55
2019-03-13T21:25:10.217Z,84.68
2019-03-13T21:27:40.892Z,84.74
2019-03-13T21:30:17.839Z,84.90
2019-03-13T21:32:50.253Z,84.74
2019-03-13T21:35:22.220Z,85.35
2019-03-13T21:37:53.003Z,85.05
2019-03-13T21:40:23.537Z,85.00
2019-03-13T21:42:55.858Z,85.11
2019-03-13T21:45:40.089Z,85.35
2019-03-13T21:47:59.087Z,86.02
2019-03-13T21:50:29.783Z,86.71
2019-03-13T21:53:01.250Z,86.78
2019-03-13T21:55:32.459Z,87.88
2019-03-13T21:58:04.783Z,89.06
2019-03-13T22:00:35.919Z,89.29
2019-03-13T22:03:10.759Z,89.90
2019-03-13T22:05:41.644Z,89.33
2019-03-13T22:08:12.399Z,89.68
2019-03-13T22:10:43.674Z,90.66
2019-03-13T22:13:17.791Z,91.14
2019-03-13T22:15:48.582Z,90.65
2019-03-13T22:18:20.804Z,91.27
2019-03-13T22:20:53.019Z,91.88
2019-03-13T22:23:23.789Z,92.73
2019-03-13T22:25:54.548Z,92.34
2019-03-13T22:28:25.468Z,93.06
2019-03-13T22:30:56.474Z,93.02
2019-03-13T22:33:28.274Z,93.63
2019-03-13T22:35:59.890Z,93.66
2019-03-13T22:38:35.007Z,93.36
2019-03-13T22:41:08.922Z,93.47
2019-03-13T22:43:39.551Z,93.71
2019-03-13T22:46:10.442Z,92.86
2019-03-13T22:48:42.897Z,93.06
2019-03-13T22:51:15.027Z,92.95
2019-03-13T22:53:45.395Z,92.85
2019-03-13T22:56:18.286Z,93.03
2019-03-13T22:58:53.963Z,92.73
2019-03-13T23:01:26.644Z,93.31
2019-03-13T23:03:58.060Z,93.56
2019-03-13T23:06:28.727Z,94.14
2019-03-13T23:08:58.997Z,94.00
2019-03-13T23:11:29.738Z,94.00
2019-03-13T23:14:00.310Z,94.35
2019-03-13T23:16:34.165Z,94.30
2019-03-13T23:19:06.738Z,94.48
2019-03-13T23:21:37.061Z,94.41
2019-03-13T23:24:07.700Z,94.50
2019-03-13T23:26:39.970Z,94.68
2019-03-13T23:29:12.238Z,94.30
2019-03-13T23:31:44.526Z,93.92
2019-03-13T23:34:16.387Z,93.84
2019-03-13T23:36:49.731Z,93.28
2019-03-13T23:39:20.064Z,93.21
2019-03-13T23:41:50.911Z,93.70
2019-03-13T23:44:23.099Z,93.25
2019-03-13T23:46:56.823Z,93.68
2019-03-13T23:49:27.484Z,93.43
2019-03-13T23:51:57.858Z,93.16
2019-03-13T23:54:28.769Z,93.22
2019-03-13T23:57:00.968Z,93.21
2019-03-13T23:59:33.149Z,93.40
